Time;durP1;ratioP1;P1;durP2;ratioP2;P2;SDS_P1;SDS_P2;PMS_P1;PMS_P2;Temp;Humidity;BMP_temperature;BMP_pressure;BME280_temperature;BME280_humidity;BME280_pressure;Samples;Min_cycle;Max_cycle;Signal;HPM_P1;HPM_P2
2020/12/16 00:02:25;;;;;;;8.60;7.80;;;8.10;99.90;;;;;;5047171;28;20515;-38
2020/12/16 00:04:51;;;;;;;12.57;10.53;;;8.00;99.90;;;;;;5049582;28;20424;-37
2020/12/16 00:07:18;;;;;;;10.30;9.30;;;8.30;99.90;;;;;;5049688;28;20420;-37
2020/12/16 00:09:44;;;;;;;12.40;10.60;;;8.10;99.90;;;;;;5050146;28;20428;-38
2020/12/16 00:12:10;;;;;;;13.33;11.30;;;8.20;99.90;;;;;;5049707;28;20464;-37
2020/12/16 00:14:36;;;;;;;10.53;9.17;;;8.30;99.90;;;;;;5049332;28;20946;-38
2020/12/16 00:17:02;;;;;;;8.57;7.77;;;8.20;99.90;;;;;;5049661;28;20537;-37
2020/12/16 00:19:28;;;;;;;8.03;7.33;;;8.00;99.90;;;;;;5049936;28;20185;-39
2020/12/16 00:21:57;;;;;;;8.00;7.30;;;7.90;99.90;;;;;;5049479;28;20792;-40
2020/12/16 00:24:22;;;;;;;9.83;8.83;;;7.70;99.90;;;;;;5049202;28;20311;-38
2020/12/16 00:26:48;;;;;;;8.97;8.07;;;7.40;99.90;;;;;;5049606;28;20499;-38
2020/12/16 00:29:14;;;;;;;12.93;10.27;;;7.30;99.90;;;;;;5048523;28;20193;-39
2020/12/16 00:31:40;;;;;;;11.13;9.80;;;7.30;99.90;;;;;;5049283;28;20209;-38
2020/12/16 00:34:06;;;;;;;10.43;9.37;;;7.60;99.90;;;;;;5049031;28;20217;-38
2020/12/16 00:36:37;;;;;;;13.13;10.07;;;7.50;99.90;;;;;;5048085;28;20193;-39
2020/12/16 00:39:04;;;;;;;14.27;12.10;;;7.40;99.90;;;;;;5049763;28;20424;-39
2020/12/16 00:41:32;;;;;;;12.77;11.33;;;7.70;99.90;;;;;;5049589;28;20424;-38
2020/12/16 00:43:59;;;;;;;11.60;10.40;;;7.60;99.90;;;;;;5048870;28;20421;-38
2020/12/16 00:46:24;;;;;;;13.30;10.77;;;7.30;99.90;;;;;;5049427;28;20832;-38
2020/12/16 00:48:50;;;;;;;12.73;10.90;;;7.40;99.90;;;;;;5049480;28;20469;-37
2020/12/16 00:51:16;;;;;;;12.00;10.73;;;7.60;99.90;;;;;;5049069;28;20213;-38
2020/12/16 00:53:42;;;;;;;10.20;9.20;;;7.60;99.90;;;;;;5047332;28;20566;-38
2020/12/16 00:56:08;;;;;;;10.17;9.13;;;7.40;99.90;;;;;;5049340;28;20783;-38
2020/12/16 00:58:33;;;;;;;10.33;9.30;;;7.30;99.90;;;;;;5049297;28;20205;-38
2020/12/16 01:00:59;;;;;;;10.23;9.23;;;7.30;99.90;;;;;;5046519;28;20232;-39
2020/12/16 01:03:25;;;;;;;11.90;9.90;;;7.20;99.90;;;;;;5048620;28;20178;-38
2020/12/16 01:05:50;;;;;;;12.40;10.67;;;7.50;99.90;;;;;;5044169;28;20906;-38
2020/12/16 01:08:16;;;;;;;12.30;10.87;;;7.30;99.90;;;;;;5043050;28;20215;-39
2020/12/16 01:10:42;;;;;;;14.10;12.13;;;7.70;99.90;;;;;;5049119;28;20201;-37
2020/12/16 01:13:08;;;;;;;16.20;13.43;;;7.70;99.90;;;;;;5048723;28;20437;-38
2020/12/16 01:15:34;;;;;;;17.37;14.47;;;7.80;99.90;;;;;;5048975;28;20510;-38
2020/12/16 01:17:59;;;;;;;14.60;12.83;;;7.90;99.90;;;;;;5049156;28;20300;-38
2020/12/16 01:20:25;;;;;;;16.60;13.60;;;7.90;99.90;;;;;;5048945;28;20644;-38
2020/12/16 01:22:51;;;;;;;15.80;12.87;;;8.00;99.90;;;;;;5044179;28;20185;-37
2020/12/16 01:25:18;;;;;;;16.40;13.47;;;7.90;99.90;;;;;;5048781;28;20589;-37
2020/12/16 01:27:44;;;;;;;13.87;12.37;;;8.10;99.90;;;;;;5049248;28;20197;-37
2020/12/16 01:30:10;;;;;;;15.53;13.10;;;8.30;99.90;;;;;;5048939;28;20421;-37
2020/12/16 01:32:37;;;;;;;16.93;13.50;;;8.20;99.90;;;;;;5048883;28;20464;-39
2020/12/16 01:35:08;;;;;;;16.50;13.70;;;8.40;99.90;;;;;;5048213;28;20428;-37
2020/12/16 01:37:37;;;;;;;14.83;13.03;;;8.40;99.90;;;;;;5049158;28;20863;-38
2020/12/16 01:40:05;;;;;;;16.90;13.47;;;8.60;99.90;;;;;;5049038;28;20489;-38
2020/12/16 01:42:31;;;;;;;15.13;13.20;;;8.30;99.90;;;;;;5048962;28;20435;-38
2020/12/16 01:44:57;;;;;;;17.60;13.40;;;8.60;99.90;;;;;;5048287;28;20420;-38
2020/12/16 01:47:23;;;;;;;15.77;13.03;;;8.60;99.90;;;;;;5048478;28;20412;-37
2020/12/16 01:49:49;;;;;;;18.07;13.50;;;8.40;99.90;;;;;;5048971;28;20481;-39
2020/12/16 01:52:19;;;;;;;15.93;13.60;;;8.50;99.90;;;;;;5047758;28;20209;-39
2020/12/16 01:54:46;;;;;;;16.83;13.43;;;8.60;99.90;;;;;;5048170;28;20216;-38
2020/12/16 01:57:13;;;;;;;16.20;13.97;;;8.60;99.90;;;;;;5048694;28;20458;-38
2020/12/16 01:59:39;;;;;;;17.43;14.73;;;8.50;99.90;;;;;;5047423;28;20417;-39
2020/12/16 02:02:08;;;;;;;18.43;13.80;;;8.60;99.90;;;;;;5044494;28;20915;-38
2020/12/16 02:04:40;;;;;;;16.57;13.67;;;8.50;99.90;;;;;;5047108;28;20470;-37
2020/12/16 02:07:08;;;;;;;16.63;13.43;;;8.70;99.90;;;;;;5052284;28;20909;-38
2020/12/16 02:09:44;;;;;;;15.97;13.53;;;8.60;99.90;;;;;;5052462;28;20420;-38
2020/12/16 02:12:15;;;;;;;17.67;13.63;;;8.60;99.90;;;;;;5052296;28;20491;-38
2020/12/16 02:14:42;;;;;;;21.10;13.57;;;8.60;99.90;;;;;;5051743;28;21123;-38
2020/12/16 02:17:09;;;;;;;15.70;13.37;;;8.70;99.90;;;;;;5051975;28;20442;-37
2020/12/16 02:19:43;;;;;;;16.90;14.03;;;8.80;99.90;;;;;;5052214;28;20867;-38
2020/12/16 02:22:10;;;;;;;18.50;14.00;;;8.80;99.90;;;;;;5052071;28;20416;-38
2020/12/16 02:24:42;;;;;;;16.37;13.40;;;8.80;99.90;;;;;;5051504;28;20466;-40
2020/12/16 02:27:09;;;;;;;17.80;13.47;;;8.60;99.90;;;;;;5050545;28;21017;-38
2020/12/16 02:29:36;;;;;;;14.90;12.80;;;8.80;99.90;;;;;;5051908;28;20447;-38
2020/12/16 02:32:03;;;;;;;16.77;13.40;;;8.80;99.90;;;;;;5051797;28;20455;-40
2020/12/16 02:34:29;;;;;;;16.67;13.13;;;8.90;99.90;;;;;;5051371;28;20417;-38
2020/12/16 02:36:54;;;;;;;15.50;12.60;;;8.70;99.90;;;;;;5051865;28;20787;-39
2020/12/16 02:39:20;;;;;;;19.23;14.70;;;8.60;99.90;;;;;;5051518;28;20436;-38
2020/12/16 02:41:46;;;;;;;16.50;12.90;;;8.40;99.90;;;;;;5051697;28;20190;-39
2020/12/16 02:44:12;;;;;;;17.70;14.60;;;8.50;99.90;;;;;;5050088;28;20221;-38
2020/12/16 02:46:38;;;;;;;17.30;13.60;;;8.50;99.90;;;;;;5051787;28;21036;-40
2020/12/16 02:49:04;;;;;;;16.40;13.53;;;8.60;99.90;;;;;;5051310;28;20440;-40
2020/12/16 02:51:30;;;;;;;18.90;15.17;;;8.60;99.90;;;;;;5049934;28;20218;-38
2020/12/16 02:53:56;;;;;;;16.97;13.47;;;8.50;99.90;;;;;;5049349;28;20853;-38
2020/12/16 02:56:22;;;;;;;16.77;13.77;;;8.70;99.90;;;;;;5050409;28;20413;-38
2020/12/16 02:58:48;;;;;;;20.43;14.23;;;8.40;99.90;;;;;;5049705;28;20257;-38
2020/12/16 03:01:14;;;;;;;17.10;12.73;;;8.40;99.90;;;;;;5048641;28;20224;-38
2020/12/16 03:03:39;;;;;;;18.37;14.53;;;8.60;99.90;;;;;;5048993;28;20535;-38
2020/12/16 03:06:05;;;;;;;17.50;13.87;;;8.40;99.90;;;;;;5049776;28;20462;-38
2020/12/16 03:08:31;;;;;;;18.33;14.17;;;8.20;99.90;;;;;;5044087;28;20252;-37
2020/12/16 03:10:57;;;;;;;18.60;14.20;;;8.40;99.90;;;;;;5050862;28;20201;-38
2020/12/16 03:13:22;;;;;;;17.87;13.67;;;8.20;99.90;;;;;;5029397;28;20185;-40
2020/12/16 03:15:48;;;;;;;16.90;13.87;;;8.50;99.90;;;;;;5049253;28;20189;-38
2020/12/16 03:18:14;;;;;;;16.50;13.10;;;8.50;99.90;;;;;;5049478;28;20182;-39
2020/12/16 03:20:39;;;;;;;17.47;13.87;;;8.50;99.90;;;;;;5049411;28;20656;-39
2020/12/16 03:23:05;;;;;;;18.50;13.40;;;8.50;99.90;;;;;;5048369;28;20193;-38
2020/12/16 03:25:31;;;;;;;15.77;12.93;;;8.40;99.90;;;;;;5049064;28;20609;-41
2020/12/16 03:27:56;;;;;;;16.97;13.23;;;8.30;99.90;;;;;;5049087;28;20687;-38
2020/12/16 03:30:22;;;;;;;16.83;14.17;;;8.50;99.90;;;;;;5049385;28;20266;-38
2020/12/16 03:32:47;;;;;;;14.80;12.67;;;8.30;99.90;;;;;;5042165;28;20302;-38
2020/12/16 03:35:14;;;;;;;15.13;12.83;;;8.30;99.90;;;;;;5048520;28;20181;-38
2020/12/16 03:37:40;;;;;;;17.70;13.00;;;8.30;99.90;;;;;;5049490;28;20192;-38
2020/12/16 03:40:05;;;;;;;20.13;13.80;;;8.30;99.90;;;;;;5049209;28;20433;-38
2020/12/16 03:42:31;;;;;;;19.43;13.93;;;8.30;99.90;;;;;;5048986;28;20196;-38
2020/12/16 03:44:57;;;;;;;17.40;14.53;;;8.30;99.90;;;;;;5048183;28;20277;-38
2020/12/16 03:47:22;;;;;;;17.40;14.20;;;7.90;99.90;;;;;;5048851;28;20408;-38
2020/12/16 03:49:48;;;;;;;15.53;13.00;;;8.10;99.90;;;;;;5064082;28;20328;-38
2020/12/16 03:52:14;;;;;;;14.57;10.87;;;8.00;99.90;;;;;;5048510;28;20280;-38
2020/12/16 03:54:39;;;;;;;13.97;10.87;;;7.70;99.90;;;;;;5047693;28;20644;-39
2020/12/16 03:57:05;;;;;;;12.17;9.97;;;7.90;99.90;;;;;;5048660;28;20190;-38
2020/12/16 03:59:31;;;;;;;12.70;11.03;;;7.50;99.90;;;;;;5046157;28;20184;-38
2020/12/16 04:01:56;;;;;;;15.10;12.83;;;7.80;99.90;;;;;;5044459;28;20190;-38
2020/12/16 04:04:22;;;;;;;16.07;12.17;;;7.60;99.90;;;;;;5048092;28;20427;-38
2020/12/16 04:06:48;;;;;;;14.07;12.40;;;7.70;99.90;;;;;;5048453;28;20182;-38
2020/12/16 04:09:13;;;;;;;15.10;12.70;;;7.70;99.90;;;;;;5048275;28;20197;-38
2020/12/16 04:11:39;;;;;;;17.10;12.90;;;7.80;99.90;;;;;;5048283;28;20256;-38
2020/12/16 04:14:05;;;;;;;16.43;12.60;;;7.90;99.90;;;;;;5047673;28;20181;-38
2020/12/16 04:16:31;;;;;;;15.60;12.30;;;7.70;99.90;;;;;;5048266;28;20472;-38
2020/12/16 04:18:56;;;;;;;16.40;13.13;;;7.80;99.90;;;;;;5048308;28;20185;-38
2020/12/16 04:21:22;;;;;;;17.70;13.13;;;8.00;99.90;;;;;;5048480;28;20242;-38
2020/12/16 04:23:48;;;;;;;16.03;12.20;;;7.90;99.90;;;;;;5047566;28;20750;-37
2020/12/16 04:26:14;;;;;;;16.33;13.07;;;8.00;99.90;;;;;;5048076;28;20203;-38
2020/12/16 04:28:40;;;;;;;19.17;13.63;;;8.10;99.90;;;;;;5047932;28;20178;-38
2020/12/16 04:31:10;;;;;;;17.10;12.53;;;7.70;99.90;;;;;;5048277;28;20431;-37
2020/12/16 04:33:36;;;;;;;15.30;12.10;;;7.70;99.90;;;;;;5047925;28;20779;-40
2020/12/16 04:36:02;;;;;;;15.97;11.77;;;7.70;99.90;;;;;;5047848;28;20833;-38
2020/12/16 04:38:28;;;;;;;14.37;11.37;;;7.50;99.90;;;;;;5048203;28;20451;-38
2020/12/16 04:40:55;;;;;;;13.47;10.70;;;7.50;99.90;;;;;;5047696;28;20970;-38
2020/12/16 04:43:23;;;;;;;13.83;10.90;;;7.50;99.90;;;;;;5039812;28;20178;-38
2020/12/16 04:45:50;;;;;;;13.43;10.80;;;7.20;99.90;;;;;;5045720;28;20844;-39
2020/12/16 04:48:17;;;;;;;13.20;10.20;;;7.50;99.90;;;;;;5048694;28;21140;-38
2020/12/16 04:50:44;;;;;;;10.97;8.73;;;7.10;99.90;;;;;;5046406;28;20432;-38
2020/12/16 04:53:15;;;;;;;13.70;10.60;;;7.20;99.90;;;;;;5044052;28;20486;-38
2020/12/16 04:55:42;;;;;;;13.07;10.13;;;7.10;99.90;;;;;;5047810;28;20409;-38
2020/12/16 04:58:08;;;;;;;12.37;9.17;;;7.00;99.90;;;;;;5038039;28;20433;-37
2020/12/16 05:00:35;;;;;;;13.60;9.80;;;6.90;99.90;;;;;;5044886;28;20420;-38
2020/12/16 05:03:02;;;;;;;12.87;9.40;;;6.90;99.90;;;;;;5047177;28;20428;-38
2020/12/16 05:05:29;;;;;;;13.00;10.27;;;7.00;99.90;;;;;;5047978;28;20423;-38
2020/12/16 05:07:55;;;;;;;13.93;10.97;;;7.20;99.90;;;;;;5047723;28;20428;-38
2020/12/16 05:10:35;;;;;;;15.67;11.40;;;7.20;99.90;;;;;;5047996;28;20514;-38
2020/12/16 05:13:07;;;;;;;15.03;11.70;;;7.10;99.90;;;;;;5047022;28;20466;-39
2020/12/16 05:15:33;;;;;;;15.13;12.00;;;7.60;99.90;;;;;;5047619;28;20939;-39
2020/12/16 05:18:04;;;;;;;14.33;11.33;;;7.20;99.90;;;;;;5046071;28;20443;-38
2020/12/16 05:20:29;;;;;;;13.90;11.30;;;7.40;99.90;;;;;;5046593;28;20477;-38
2020/12/16 05:23:03;;;;;;;15.67;10.40;;;7.30;99.90;;;;;;5046885;28;20428;-37
2020/12/16 05:25:29;;;;;;;18.93;11.70;;;7.30;99.90;;;;;;5048144;28;20710;-38
2020/12/16 05:27:55;;;;;;;13.60;9.60;;;7.20;99.90;;;;;;5047464;28;20427;-38
2020/12/16 05:30:21;;;;;;;11.17;8.90;;;7.40;99.90;;;;;;5047249;28;20787;-38
2020/12/16 05:32:47;;;;;;;12.10;9.13;;;7.10;99.90;;;;;;5046073;28;20470;-38
2020/12/16 05:35:36;;;;;;;10.53;8.63;;;7.10;99.90;;;;;;5046857;28;20251;-40
2020/12/16 05:38:07;;;;;;;13.03;9.60;;;7.10;99.90;;;;;;5046660;28;20427;-38
2020/12/16 05:40:38;;;;;;;13.70;8.27;;;6.90;99.90;;;;;;5049306;28;20416;-39
2020/12/16 05:43:05;;;;;;;12.40;8.90;;;6.90;99.90;;;;;;5049129;28;20426;-37
2020/12/16 05:45:36;;;;;;;13.97;10.10;;;7.00;99.90;;;;;;5049855;28;20436;-38
2020/12/16 05:48:12;;;;;;;9.93;8.87;;;6.70;99.90;;;;;;5048284;28;20437;-38
2020/12/16 05:50:55;;;;;;;12.10;8.93;;;6.80;99.90;;;;;;5052524;28;20978;-38
2020/12/16 05:53:22;;;;;;;13.27;9.50;;;7.00;99.90;;;;;;5049335;28;20469;-37
2020/12/16 05:55:56;;;;;;;15.10;10.47;;;6.80;99.90;;;;;;5041903;28;20452;-37
2020/12/16 05:58:24;;;;;;;23.13;15.83;;;6.70;99.90;;;;;;5051020;28;20413;-39
2020/12/16 06:00:56;;;;;;;22.97;15.80;;;6.90;99.90;;;;;;5049221;28;20450;-37
2020/12/16 06:03:23;;;;;;;23.57;15.10;;;6.70;99.90;;;;;;5050103;28;20416;-38
2020/12/16 06:05:54;;;;;;;34.33;15.50;;;6.80;99.90;;;;;;5050270;28;20466;-38
2020/12/16 06:08:21;;;;;;;17.00;11.60;;;6.80;99.90;;;;;;5050097;28;20777;-38
2020/12/16 06:10:48;;;;;;;13.10;9.77;;;6.60;99.90;;;;;;5048516;28;20419;-38
2020/12/16 06:13:15;;;;;;;12.63;9.30;;;6.70;99.90;;;;;;5049652;28;20997;-38
2020/12/16 06:15:52;;;;;;;12.10;9.30;;;6.50;99.90;;;;;;5050764;28;20420;-40
2020/12/16 06:18:20;;;;;;;15.73;10.40;;;6.60;99.90;;;;;;5050169;28;20763;-38
2020/12/16 06:20:46;;;;;;;12.83;10.60;;;6.30;99.90;;;;;;5047838;28;20502;-38
2020/12/16 06:23:39;;;;;;;14.70;10.67;;;6.50;99.90;;;;;;5049614;28;20435;-38
2020/12/16 06:26:07;;;;;;;13.93;10.67;;;6.40;99.90;;;;;;5050360;28;20957;-38
2020/12/16 06:28:33;;;;;;;14.17;11.00;;;6.50;99.90;;;;;;5050682;28;20751;-38
2020/12/16 06:31:16;;;;;;;17.83;11.73;;;6.70;99.90;;;;;;5048701;28;20473;-38
2020/12/16 06:33:42;;;;;;;15.53;11.53;;;6.70;99.90;;;;;;5045836;28;20419;-37
2020/12/16 06:36:10;;;;;;;14.27;11.30;;;6.70;99.90;;;;;;5050110;28;20419;-38
2020/12/16 06:38:47;;;;;;;16.43;12.27;;;6.80;99.90;;;;;;5050459;28;20587;-38
2020/12/16 06:41:18;;;;;;;15.10;10.87;;;6.80;99.90;;;;;;5049825;28;20432;-38
2020/12/16 06:43:45;;;;;;;15.63;10.60;;;7.00;99.90;;;;;;5049698;28;20817;-38
2020/12/16 06:46:38;;;;;;;14.80;11.30;;;6.80;99.90;;;;;;5050047;28;20412;-38
2020/12/16 06:49:06;;;;;;;15.37;11.43;;;7.00;99.90;;;;;;5049895;28;20419;-38
2020/12/16 06:51:41;;;;;;;14.70;11.00;;;7.00;99.90;;;;;;5049086;28;20985;-38
2020/12/16 06:54:08;;;;;;;11.27;9.87;;;6.70;99.90;;;;;;5049322;28;20419;-39
2020/12/16 06:56:34;;;;;;;9.70;8.70;;;6.70;99.90;;;;;;5049834;28;20513;-38
2020/12/16 06:59:00;;;;;;;12.67;9.27;;;6.50;99.90;;;;;;5049804;28;20428;-38
2020/12/16 07:01:26;;;;;;;10.67;8.73;;;6.30;99.90;;;;;;5048237;28;20423;-38
2020/12/16 07:03:52;;;;;;;11.33;9.20;;;6.30;99.90;;;;;;5049184;28;20458;-38
2020/12/16 07:06:27;;;;;;;11.30;9.00;;;6.60;99.90;;;;;;5049395;28;20428;-37
2020/12/16 07:09:19;;;;;;;10.23;9.13;;;6.40;99.90;;;;;;5067863;28;20539;-39
2020/12/16 07:11:51;;;;;;;12.30;10.33;;;6.50;99.90;;;;;;5069813;28;20938;-38
2020/12/16 07:14:22;;;;;;;11.40;8.63;;;6.40;99.90;;;;;;5067355;28;20435;-39
2020/12/16 07:16:48;;;;;;;12.57;9.13;;;6.70;99.90;;;;;;5069344;28;20439;-39
2020/12/16 07:19:28;;;;;;;11.43;9.40;;;6.90;99.90;;;;;;5050676;28;20424;-38
2020/12/16 07:21:57;;;;;;;12.10;9.70;;;6.70;99.90;;;;;;5047883;28;20420;-38
2020/12/16 07:24:23;;;;;;;12.00;10.10;;;6.90;99.90;;;;;;5047695;28;20424;-38
2020/12/16 07:26:55;;;;;;;13.30;10.00;;;6.70;99.90;;;;;;5049102;28;20452;-37
2020/12/16 07:29:31;;;;;;;14.37;10.30;;;7.00;99.90;;;;;;5047430;28;20436;-37
2020/12/16 07:31:58;;;;;;;13.90;10.03;;;7.20;99.90;;;;;;5048000;28;20470;-38
2020/12/16 07:34:24;;;;;;;13.43;10.00;;;7.30;99.90;;;;;;5045460;28;20423;-40
2020/12/16 07:36:58;;;;;;;13.70;9.70;;;7.40;99.90;;;;;;5049283;28;20435;-38
2020/12/16 07:39:24;;;;;;;12.10;9.63;;;7.50;99.90;;;;;;5047030;28;20467;-38
2020/12/16 07:41:50;;;;;;;16.00;11.77;;;7.70;99.90;;;;;;5050208;28;20491;-38
2020/12/16 07:44:16;;;;;;;14.60;10.93;;;7.80;99.90;;;;;;5047834;28;20798;-38
2020/12/16 07:46:42;;;;;;;15.30;11.80;;;7.60;99.90;;;;;;5057492;28;20200;-38
2020/12/16 07:49:12;;;;;;;15.80;11.50;;;7.70;99.90;;;;;;5068875;28;20435;-38
2020/12/16 07:51:38;;;;;;;16.33;11.93;;;7.60;99.90;;;;;;5061943;28;20547;-38
2020/12/16 07:54:04;;;;;;;17.47;11.30;;;7.70;99.90;;;;;;5048315;28;20542;-39
2020/12/16 07:56:30;;;;;;;14.33;10.73;;;7.70;99.90;;;;;;5056594;28;20918;-39
2020/12/16 07:58:56;;;;;;;12.47;9.40;;;7.70;99.90;;;;;;5065952;28;20428;-37
2020/12/16 08:01:22;;;;;;;12.67;9.37;;;8.00;99.90;;;;;;5049243;28;20205;-39
2020/12/16 08:03:48;;;;;;;11.37;9.77;;;7.70;99.90;;;;;;5048721;28;20946;-39
2020/12/16 08:06:14;;;;;;;11.97;10.10;;;8.10;99.90;;;;;;5048195;28;20177;-40
2020/12/16 08:08:42;;;;;;;13.97;10.40;;;7.90;99.90;;;;;;5047444;28;20620;-38
2020/12/16 08:11:13;;;;;;;12.77;10.50;;;8.20;99.90;;;;;;5048565;28;20416;-38
2020/12/16 08:13:38;;;;;;;12.63;9.63;;;8.00;99.90;;;;;;5047838;28;20420;-37
2020/12/16 08:16:05;;;;;;;11.97;9.30;;;8.00;99.90;;;;;;5048346;28;21019;-38
2020/12/16 08:18:32;;;;;;;15.90;11.20;;;7.80;99.90;;;;;;5048649;28;20273;-37
2020/12/16 08:20:57;;;;;;;14.70;11.67;;;7.90;99.90;;;;;;5048583;28;20530;-38
2020/12/16 08:23:23;;;;;;;16.43;13.27;;;7.70;99.90;;;;;;5047382;28;20440;-38
2020/12/16 08:25:49;;;;;;;16.20;12.03;;;7.90;99.90;;;;;;5048354;28;20747;-37
2020/12/16 08:28:25;;;;;;;14.13;10.23;;;8.10;99.90;;;;;;5047954;28;20189;-38
2020/12/16 08:30:52;;;;;;;14.50;9.73;;;8.10;99.90;;;;;;5059465;28;20195;-39
2020/12/16 08:33:19;;;;;;;12.70;9.33;;;7.90;99.90;;;;;;5046483;28;20550;-37
2020/12/16 08:35:51;;;;;;;12.40;8.90;;;8.10;99.90;;;;;;5047532;28;20515;-37
2020/12/16 08:38:38;;;;;;;12.50;10.27;;;8.20;99.90;;;;;;5047539;28;20459;-39
2020/12/16 08:41:06;;;;;;;14.37;11.73;;;8.60;99.90;;;;;;5046446;28;20420;-38
2020/12/16 08:43:35;;;;;;;11.80;9.40;;;8.70;99.90;;;;;;5047354;28;20456;-38
2020/12/16 08:46:07;;;;;;;12.53;9.17;;;8.80;99.90;;;;;;5047247;28;20424;-38
2020/12/16 08:48:48;;;;;;;10.40;9.30;;;9.00;99.90;;;;;;5058689;28;20431;-38
2020/12/16 08:51:22;;;;;;;13.00;8.63;;;9.10;99.90;;;;;;5052291;28;21164;-38
2020/12/16 08:53:54;;;;;;;10.30;8.30;;;9.20;99.90;;;;;;5066938;28;20429;-38
2020/12/16 08:56:24;;;;;;;10.60;8.63;;;9.40;99.90;;;;;;5052512;28;20429;-39
2020/12/16 08:58:59;;;;;;;10.37;8.23;;;9.70;99.90;;;;;;5047698;28;20746;-37
2020/12/16 09:01:25;;;;;;;9.80;8.50;;;9.70;99.90;;;;;;5048880;28;20788;-37
2020/12/16 09:03:52;;;;;;;10.40;8.23;;;9.90;99.90;;;;;;5044683;28;20438;-38
2020/12/16 09:06:18;;;;;;;9.17;8.13;;;10.10;99.90;;;;;;5047215;28;20412;-38
2020/12/16 09:08:44;;;;;;;9.20;8.00;;;10.40;99.90;;;;;;5048261;28;20671;-38
2020/12/16 09:11:10;;;;;;;9.30;7.20;;;10.50;99.90;;;;;;5046599;28;20432;-37
2020/12/16 09:13:35;;;;;;;8.60;7.20;;;10.70;99.90;;;;;;5048801;28;20709;-37
2020/12/16 09:16:01;;;;;;;8.20;6.67;;;10.90;99.90;;;;;;5052861;28;20233;-37
2020/12/16 09:18:28;;;;;;;10.57;7.50;;;10.90;99.90;;;;;;5051764;28;20236;-37
2020/12/16 09:20:55;;;;;;;9.27;7.57;;;11.20;99.90;;;;;;5049799;28;20205;-37
2020/12/16 09:23:28;;;;;;;7.60;6.60;;;11.40;99.90;;;;;;5050848;28;20431;-38
2020/12/16 09:25:57;;;;;;;8.13;7.20;;;11.70;99.90;;;;;;5051125;28;20861;-37
2020/12/16 09:28:38;;;;;;;9.53;7.20;;;12.00;99.90;;;;;;5051502;28;20485;-38
2020/12/16 09:31:15;;;;;;;6.93;5.67;;;12.30;99.90;;;;;;5050816;28;20424;-38
2020/12/16 09:33:41;;;;;;;7.50;6.50;;;12.90;99.90;;;;;;5059333;28;20502;-37
2020/12/16 09:36:07;;;;;;;9.40;6.40;;;13.10;99.90;;;;;;5059430;28;20447;-38
2020/12/16 09:38:32;;;;;;;7.73;6.40;;;13.40;99.90;;;;;;5052905;28;20428;-38
2020/12/16 09:40:59;;;;;;;6.10;5.50;;;13.90;99.90;;;;;;5052808;28;20515;-39
2020/12/16 09:43:39;;;;;;;7.10;6.10;;;15.00;99.90;;;;;;5052115;28;20541;-38
2020/12/16 09:46:37;;;;;;;6.30;5.10;;;16.50;99.90;;;;;;5050662;28;20436;-38
2020/12/16 09:49:03;;;;;;;6.07;5.50;;;18.10;99.90;;;;;;5056374;28;20939;-39
2020/12/16 09:51:35;;;;;;;6.03;5.43;;;18.50;99.60;;;;;;5059147;28;20470;-38
2020/12/16 09:54:01;;;;;;;6.80;5.90;;;17.70;99.90;;;;;;5059144;28;20690;-38
2020/12/16 09:56:28;;;;;;;6.50;5.07;;;16.60;99.90;;;;;;5052175;28;20428;-38
2020/12/16 09:58:54;;;;;;;7.17;6.27;;;15.90;99.90;;;;;;5052639;28;20200;-38
2020/12/16 10:01:20;;;;;;;6.03;5.43;;;16.00;99.90;;;;;;5059860;28;20442;-38
2020/12/16 10:03:50;;;;;;;6.20;5.60;;;16.20;99.90;;;;;;5067724;28;20423;-38
2020/12/16 10:06:17;;;;;;;6.57;5.87;;;16.30;99.90;;;;;;5052325;28;20432;-39
2020/12/16 10:08:44;;;;;;;6.00;5.40;;;15.80;99.90;;;;;;5054203;28;20428;-37
2020/12/16 10:11:11;;;;;;;6.10;5.10;;;15.10;99.90;;;;;;5053655;28;20427;-38
2020/12/16 10:13:37;;;;;;;6.33;5.73;;;14.30;99.90;;;;;;5054539;28;20435;-39
2020/12/16 10:16:03;;;;;;;6.00;5.47;;;13.80;99.90;;;;;;5070997;28;20435;-38
2020/12/16 10:18:29;;;;;;;6.00;5.40;;;14.00;99.90;;;;;;5070782;28;20430;-40
2020/12/16 10:20:54;;;;;;;5.80;5.30;;;14.30;99.90;;;;;;5070619;28;20219;-38
2020/12/16 10:23:20;;;;;;;5.37;4.87;;;14.50;99.90;;;;;;5069741;28;20193;-39
2020/12/16 10:25:46;;;;;;;5.20;4.70;;;14.50;99.90;;;;;;5069843;28;20197;-39
2020/12/16 10:28:11;;;;;;;5.60;5.10;;;14.30;99.90;;;;;;5063218;28;20197;-39
2020/12/16 10:30:38;;;;;;;6.63;5.20;;;14.20;99.90;;;;;;5040749;28;20225;-38
2020/12/16 10:33:04;;;;;;;4.80;4.40;;;14.20;99.90;;;;;;5049531;28;20218;-38
2020/12/16 10:35:30;;;;;;;4.73;4.23;;;14.20;99.90;;;;;;5049086;28;20455;-38
2020/12/16 10:37:56;;;;;;;4.60;4.20;;;14.30;99.90;;;;;;5050534;28;20463;-38
2020/12/16 10:40:21;;;;;;;5.17;4.67;;;14.30;99.90;;;;;;5050716;28;20197;-38
2020/12/16 10:42:48;;;;;;;4.83;4.37;;;14.00;99.90;;;;;;5048460;28;20225;-38
2020/12/16 10:45:14;;;;;;;4.30;3.83;;;14.10;99.90;;;;;;5048598;28;20202;-38
2020/12/16 10:47:40;;;;;;;4.17;3.83;;;15.10;99.90;;;;;;5050048;28;20855;-38
2020/12/16 10:50:06;;;;;;;4.23;3.73;;;15.30;99.90;;;;;;5051962;28;20288;-38
2020/12/16 10:52:32;;;;;;;4.40;4.00;;;15.30;99.90;;;;;;5067123;28;20561;-38
2020/12/16 10:54:58;;;;;;;3.80;3.50;;;15.50;99.90;;;;;;5069523;28;20193;-39
2020/12/16 10:57:24;;;;;;;4.23;3.93;;;16.10;99.90;;;;;;5069936;28;20181;-39
2020/12/16 10:59:49;;;;;;;4.23;3.83;;;16.20;99.90;;;;;;5068560;28;20840;-38
2020/12/16 11:02:15;;;;;;;4.93;4.37;;;15.70;99.90;;;;;;5064306;28;20482;-38
2020/12/16 11:04:43;;;;;;;5.93;4.37;;;15.00;99.90;;;;;;5057879;28;20250;-38
2020/12/16 11:07:10;;;;;;;3.67;3.37;;;14.50;99.90;;;;;;5068226;28;20455;-37
2020/12/16 11:09:36;;;;;;;6.90;4.17;;;13.90;99.90;;;;;;5069882;28;20420;-38
2020/12/16 11:12:02;;;;;;;4.17;3.53;;;13.50;99.90;;;;;;5069370;28;20470;-39
2020/12/16 11:14:28;;;;;;;4.57;4.07;;;13.30;99.90;;;;;;5059289;28;20419;-38
2020/12/16 11:16:54;;;;;;;4.53;3.67;;;13.20;99.90;;;;;;5069553;28;20453;-37
2020/12/16 11:19:20;;;;;;;4.63;3.60;;;12.80;99.90;;;;;;5058222;28;20282;-41
2020/12/16 11:21:51;;;;;;;5.33;3.70;;;12.60;99.90;;;;;;5050734;28;20420;-38
2020/12/16 11:24:20;;;;;;;3.80;3.40;;;12.70;99.90;;;;;;5048129;28;20832;-38
2020/12/16 11:26:47;;;;;;;3.50;3.20;;;12.70;99.90;;;;;;5051346;28;20698;-38
2020/12/16 11:29:18;;;;;;;4.30;3.60;;;12.60;99.90;;;;;;5048398;28;20429;-38
2020/12/16 11:31:52;;;;;;;3.23;3.00;;;12.60;99.90;;;;;;5048553;28;20543;-38
2020/12/16 11:34:21;;;;;;;3.97;3.67;;;12.60;99.90;;;;;;5046780;28;20426;-39
2020/12/16 11:36:48;;;;;;;3.00;2.70;;;12.60;99.90;;;;;;5049541;28;20432;-37
2020/12/16 11:39:15;;;;;;;3.83;2.90;;;12.70;99.90;;;;;;5048886;28;20460;-38
2020/12/16 11:41:43;;;;;;;3.40;3.10;;;12.80;99.90;;;;;;5069220;28;20428;-37
2020/12/16 11:44:09;;;;;;;3.57;3.10;;;12.90;99.90;;;;;;5068022;28;21016;-38
2020/12/16 11:46:34;;;;;;;4.07;3.40;;;13.10;99.90;;;;;;5069071;28;20800;-39
2020/12/16 11:49:04;;;;;;;3.80;3.30;;;13.40;99.90;;;;;;5068681;28;20431;-38
2020/12/16 11:51:30;;;;;;;3.13;2.83;;;13.80;99.90;;;;;;5068533;28;20196;-38
2020/12/16 11:53:57;;;;;;;3.40;3.10;;;14.20;99.90;;;;;;5068055;28;20427;-38
2020/12/16 11:56:23;;;;;;;2.63;2.43;;;14.70;99.90;;;;;;5068535;28;20450;-38
2020/12/16 11:58:49;;;;;;;3.50;3.20;;;15.30;99.90;;;;;;5068619;28;20430;-38
2020/12/16 12:01:19;;;;;;;3.00;2.80;;;15.80;99.90;;;;;;5067651;28;20897;-38
2020/12/16 12:03:44;;;;;;;3.27;2.97;;;16.10;99.90;;;;;;5067875;28;20216;-38
2020/12/16 12:06:14;;;;;;;3.40;3.10;;;16.50;99.90;;;;;;5068554;28;20463;-39
2020/12/16 12:08:41;;;;;;;3.80;3.50;;;16.30;99.90;;;;;;5068512;28;20181;-40
2020/12/16 12:11:13;;;;;;;3.27;2.97;;;16.80;99.90;;;;;;5068484;28;20890;-39
2020/12/16 12:13:40;;;;;;;2.83;2.63;;;17.70;99.90;;;;;;5067639;28;20973;-39
2020/12/16 12:16:10;;;;;;;3.13;2.90;;;18.80;99.90;;;;;;5068564;28;20550;-38
2020/12/16 12:18:38;;;;;;;3.33;3.03;;;19.40;99.80;;;;;;5068196;28;20451;-38
2020/12/16 12:21:08;;;;;;;3.23;3.03;;;18.60;99.90;;;;;;5067172;28;20823;-38
2020/12/16 12:23:34;;;;;;;3.33;3.03;;;17.30;99.90;;;;;;5050055;28;20837;-37
2020/12/16 12:26:02;;;;;;;3.10;2.90;;;15.90;99.90;;;;;;5047687;28;20408;-38
2020/12/16 12:28:27;;;;;;;4.50;4.10;;;15.20;99.90;;;;;;5055269;28;20819;-38
2020/12/16 12:30:53;;;;;;;4.63;4.23;;;14.60;99.90;;;;;;5040107;28;20466;-38
2020/12/16 12:33:19;;;;;;;3.67;3.37;;;14.10;99.90;;;;;;5065826;28;20579;-38
2020/12/16 12:35:46;;;;;;;3.40;3.00;;;13.60;99.90;;;;;;5068198;28;20334;-38
2020/12/16 12:38:11;;;;;;;3.40;2.80;;;13.30;99.90;;;;;;5068409;28;20262;-39
2020/12/16 12:40:37;;;;;;;4.80;4.00;;;13.10;99.90;;;;;;5068183;28;20458;-38
2020/12/16 12:43:03;;;;;;;3.43;3.13;;;13.00;99.90;;;;;;5067416;28;20639;-38
2020/12/16 12:45:29;;;;;;;4.20;3.80;;;12.80;99.90;;;;;;5067716;28;20231;-38
2020/12/16 12:47:54;;;;;;;3.63;3.33;;;12.60;99.90;;;;;;5067396;28;20193;-38